Gorchs, Argentina
Current Conditions -  °F | °C
As of 4:00 PM on Thursday 18 Dec 2014 (Local Time) from SAEZ Reporting Station
Clear Clear  
Wind Chill: 90°   Ceiling: Unl
Heat Index: 90°   Visibility: 6mi
Dew Point: 57°   Wind: 10mph
Humidity: 33%   Direction: 290°WNW
Pressure: 29.77"   Gusts: NA
Location:  35.61°S, 58.92°W
Report Text: SAEZ 181900Z 29009KT CAVOK 32/14 Q1008
Loading
Personal Weather Stations






























Interactive Weather Map New forecast layout! Learn more

10-Day Weather Forecast

Advertisements
Track Severe Weather on mobile